Time;durP1;ratioP1;P1;durP2;ratioP2;P2;SDS_P1;SDS_P2;PMS_P1;PMS_P2;Temp;Humidity;BMP_temperature;BMP_pressure;BME280_temperature;BME280_humidity;BME280_pressure;Samples;Min_cycle;Max_cycle;Signal;HPM_P1;HPM_P2
2023/09/19 00:01:00;;;;;;;12.10;10.10;;;;;;;17.60;79.06;96133.21;111752;1244;22540;-73
2023/09/19 00:03:43;;;;;;;12.80;9.30;;;;;;;17.61;79.19;96128.83;111765;1244;22506;-73
2023/09/19 00:06:13;;;;;;;11.10;9.90;;;;;;;17.64;79.30;96127.59;111716;1244;23811;-73
2023/09/19 00:08:44;;;;;;;11.10;10.00;;;;;;;17.66;79.44;96130.36;111702;1244;24512;-73
2023/09/19 00:11:14;;;;;;;15.50;10.30;;;;;;;17.68;79.45;96132.87;111731;1244;22519;-73
2023/09/19 00:13:43;;;;;;;12.60;10.10;;;;;;;17.67;79.34;96132.52;111751;1244;22532;-73
2023/09/19 00:16:12;;;;;;;12.50;10.00;;;;;;;17.67;79.29;96133.59;111751;1229;22979;-73
2023/09/19 00:18:42;;;;;;;11.60;9.60;;;;;;;17.68;79.35;96135.92;111784;1244;25273;-73
2023/09/19 00:21:12;;;;;;;11.90;9.80;;;;;;;17.67;79.53;96137.67;111713;1244;22519;-73
2023/09/19 00:23:41;;;;;;;12.70;9.90;;;;;;;17.67;79.60;96141.16;111723;1244;22498;-73
2023/09/19 00:26:12;;;;;;;12.60;9.60;;;;;;;17.67;79.71;96144.70;111750;1244;22575;-73
2023/09/19 00:28:41;;;;;;;11.10;9.90;;;;;;;17.68;79.82;96149.34;111730;1244;23286;-73
2023/09/19 00:31:10;;;;;;;13.90;9.90;;;;;;;17.67;80.20;96148.92;111746;1244;22502;-73
2023/09/19 00:33:44;;;;;;;14.20;9.60;;;;;;;17.63;80.97;96152.70;111774;1244;22528;-73
2023/09/19 00:36:12;;;;;;;12.50;11.00;;;;;;;17.59;81.12;96150.33;111728;1244;23797;-73
2023/09/19 00:38:40;;;;;;;14.10;11.30;;;;;;;17.50;81.28;96145.45;111745;1244;23177;-73
2023/09/19 00:41:08;;;;;;;16.90;11.00;;;;;;;17.42;81.57;96145.25;111695;1244;24194;-72
2023/09/19 00:43:36;;;;;;;14.50;10.70;;;;;;;17.30;81.39;96149.86;111710;1244;22503;-73
2023/09/19 00:46:06;;;;;;;14.00;10.90;;;;;;;17.10;81.53;96142.73;111746;1244;22519;-73
2023/09/19 00:48:43;;;;;;;15.10;12.90;;;;;;;16.92;82.23;96135.01;111768;1244;22615;-73
2023/09/19 00:51:13;;;;;;;15.90;12.80;;;;;;;16.70;83.12;96128.02;111697;1244;22505;-73
2023/09/19 00:53:46;;;;;;;14.50;13.00;;;;;;;16.50;84.01;96127.38;111716;1244;22510;-73
2023/09/19 00:56:14;;;;;;;15.30;13.00;;;;;;;16.35;85.13;96124.33;111729;1244;22499;-73
2023/09/19 00:58:44;;;;;;;16.10;13.90;;;;;;;16.24;86.32;96119.81;111791;1244;24223;-73
2023/09/19 01:01:14;;;;;;;18.20;14.80;;;;;;;16.16;87.34;96115.74;111863;1244;25765;-73
2023/09/19 01:03:47;;;;;;;17.50;15.40;;;;;;;16.11;88.16;96117.14;111744;1244;22673;-73
2023/09/19 01:06:15;;;;;;;19.40;16.70;;;;;;;16.14;89.47;96110.45;111717;1228;22517;-72
2023/09/19 01:08:47;;;;;;;18.90;16.50;;;;;;;16.20;90.20;96108.27;111734;1244;37984;-73
2023/09/19 01:11:24;;;;;;;19.60;17.50;;;;;;;16.27;91.22;96106.06;111719;1238;24511;-73
2023/09/19 01:14:14;;;;;;;19.80;17.80;;;;;;;16.37;91.79;96104.39;111744;1244;25223;-73
2023/09/19 01:16:50;;;;;;;16.60;14.90;;;;;;;16.46;91.80;96107.42;111708;1244;22509;-73
2023/09/19 01:19:56;;;;;;;16.30;14.60;;;;;;;16.51;91.54;96104.88;111724;1244;23375;-73
2023/09/19 01:22:34;;;;;;;16.00;13.90;;;;;;;16.51;91.49;96108.02;111651;1244;22514;-73
2023/09/19 01:25:34;;;;;;;17.20;15.40;;;;;;;16.54;91.43;96100.94;111736;1244;22541;-73
2023/09/19 01:28:36;;;;;;;17.70;15.20;;;;;;;16.49;91.80;96096.02;111722;1244;24188;-73
2023/09/19 01:31:09;;;;;;;17.00;15.00;;;;;;;16.48;92.07;96103.11;111628;1244;26520;-73
2023/09/19 01:34:01;;;;;;;17.40;14.60;;;;;;;16.49;91.94;96104.42;111729;1244;25403;-73
2023/09/19 01:36:35;;;;;;;18.70;15.30;;;;;;;16.50;92.05;96103.48;111539;1244;22508;-73
2023/09/19 01:39:10;;;;;;;16.50;14.70;;;;;;;16.53;91.94;96101.20;111647;1244;46679;-72
2023/09/19 01:41:50;;;;;;;16.10;14.50;;;;;;;16.51;92.32;96097.91;111708;1244;22521;-73
2023/09/19 01:44:26;;;;;;;14.90;13.50;;;;;;;16.50;92.69;96093.70;111699;1244;23872;-72
2023/09/19 01:46:59;;;;;;;17.60;14.40;;;;;;;16.56;92.94;96094.95;111739;1244;22618;-73
2023/09/19 01:49:37;;;;;;;16.50;14.80;;;;;;;16.60;92.91;96097.17;111745;1244;22525;-73
2023/09/19 01:52:13;;;;;;;16.60;14.90;;;;;;;16.61;92.91;96093.00;111708;1244;22593;-73
2023/09/19 01:54:48;;;;;;;16.60;14.80;;;;;;;16.60;92.96;96091.17;111781;1244;22695;-73
2023/09/19 01:57:28;;;;;;;17.50;15.60;;;;;;;16.59;93.20;96083.28;111710;1244;22509;-73
2023/09/19 02:00:06;;;;;;;17.60;15.10;;;;;;;16.57;93.36;96081.45;111619;1244;22562;-73
2023/09/19 02:02:38;;;;;;;21.60;16.20;;;;;;;16.52;93.55;96077.00;111735;1244;22521;-73
2023/09/19 02:05:08;;;;;;;17.20;15.20;;;;;;;16.48;93.77;96073.36;111744;1244;22525;-73
2023/09/19 02:07:40;;;;;;;17.50;15.80;;;;;;;16.45;94.00;96072.70;111687;1237;22513;-73
2023/09/19 02:10:12;;;;;;;17.00;15.20;;;;;;;16.44;94.27;96069.85;111708;1237;22563;-73
2023/09/19 02:12:41;;;;;;;17.50;15.70;;;;;;;16.44;94.43;96065.01;111743;1244;22528;-73
2023/09/19 02:15:12;;;;;;;20.10;18.20;;;;;;;16.43;94.76;96060.92;111670;1244;23727;-73
2023/09/19 02:17:41;;;;;;;18.40;16.60;;;;;;;16.47;95.44;96067.58;111716;1244;22642;-73
2023/09/19 02:20:14;;;;;;;20.50;18.40;;;;;;;16.51;95.52;96066.97;111667;1244;25330;-73
2023/09/19 02:22:52;;;;;;;21.40;19.10;;;;;;;16.56;95.83;96071.57;111667;1244;22549;-73
2023/09/19 02:25:20;;;;;;;21.30;19.10;;;;;;;16.54;96.41;96070.81;111658;1244;22499;-72
2023/09/19 02:27:48;;;;;;;21.00;18.90;;;;;;;16.51;96.80;96066.66;111729;1244;23396;-72
2023/09/19 02:30:20;;;;;;;21.80;19.50;;;;;;;16.50;97.23;96059.67;111652;1244;25327;-73
2023/09/19 02:32:49;;;;;;;21.40;19.20;;;;;;;16.50;97.50;96052.63;111670;1244;22524;-73
2023/09/19 02:35:19;;;;;;;20.50;18.30;;;;;;;16.48;97.66;96048.52;111675;1244;22510;-73
2023/09/19 02:37:48;;;;;;;20.30;18.00;;;;;;;16.49;97.63;96043.13;111678;1244;25238;-73
2023/09/19 02:40:25;;;;;;;20.50;18.40;;;;;;;16.50;97.75;96042.98;111676;1244;22534;-73
2023/09/19 02:42:56;;;;;;;20.10;18.10;;;;;;;16.48;97.76;96047.36;111656;1244;22526;-73
2023/09/19 02:45:25;;;;;;;18.40;16.50;;;;;;;16.50;98.05;96043.46;111662;1244;25265;-73
2023/09/19 02:47:54;;;;;;;19.10;17.20;;;;;;;16.53;97.85;96039.65;111742;1244;25490;-73
2023/09/19 02:50:22;;;;;;;;;;;;;;;16.53;97.82;96036.91;111806;1244;22476;-73
2023/09/19 02:52:50;;;;;;;18.60;16.60;;;;;;;16.54;97.78;96032.95;111746;1244;22537;-73
2023/09/19 02:55:21;;;;;;;17.60;15.80;;;;;;;16.50;97.62;96025.11;111764;1244;22518;-73
2023/09/19 02:57:52;;;;;;;17.80;15.50;;;;;;;16.49;97.61;96026.77;111709;1244;22523;-73
2023/09/19 03:00:22;;;;;;;17.20;15.50;;;;;;;16.49;97.61;96027.14;111764;1244;22535;-73
2023/09/19 03:02:55;;;;;;;17.90;16.10;;;;;;;16.47;97.76;96018.78;111733;1244;22496;-73
2023/09/19 03:05:31;;;;;;;17.50;15.70;;;;;;;16.41;97.90;96014.02;111767;1244;22618;-85
2023/09/19 03:08:06;;;;;;;20.40;17.50;;;;;;;16.37;98.07;96010.58;111974;1244;57863;-82
2023/09/19 03:10:46;;;;;;;17.90;16.00;;;;;;;16.37;98.43;96001.20;112050;1244;22533;-84
2023/09/19 03:13:16;;;;;;;18.10;16.50;;;;;;;16.40;98.56;95993.70;111985;1244;22500;-84
2023/09/19 03:16:07;;;;;;;18.60;16.70;;;;;;;16.40;98.45;95987.89;111995;1244;22507;-84
2023/09/19 03:18:36;;;;;;;20.40;16.70;;;;;;;16.39;98.64;95982.58;112041;1244;22627;-83
2023/09/19 03:21:19;;;;;;;19.70;17.80;;;;;;;16.38;99.01;95981.35;112047;1244;22638;-83
2023/09/19 03:23:57;;;;;;;18.80;17.00;;;;;;;16.39;99.33;95980.23;112027;1244;22522;-82
2023/09/19 03:26:26;;;;;;;19.20;17.30;;;;;;;16.42;99.56;95980.40;111990;1244;22519;-82
2023/09/19 03:29:17;;;;;;;19.70;17.70;;;;;;;16.43;99.70;95974.17;110579;1244;1803523;-80
2023/09/19 03:31:46;;;;;;;19.70;16.60;;;;;;;16.47;99.75;95966.50;112037;1244;22559;-80
2023/09/19 03:34:16;;;;;;;18.40;16.60;;;;;;;16.49;99.67;95964.08;112038;1244;22518;-79
2023/09/19 03:36:45;;;;;;;18.70;16.80;;;;;;;16.49;99.61;95959.71;111998;1230;22513;-79
2023/09/19 03:39:15;;;;;;;17.40;15.60;;;;;;;16.49;99.80;95956.11;111640;1244;31971;-79
2023/09/19 03:41:49;;;;;;;18.20;16.30;;;;;;;16.50;99.89;95956.52;111628;1244;22519;-79
2023/09/19 03:44:19;;;;;;;17.40;15.60;;;;;;;16.51;99.99;95952.06;111682;1244;22531;-79
2023/09/19 03:46:47;;;;;;;18.30;16.40;;;;;;;16.52;100.00;95958.98;111699;1244;22518;-79
2023/09/19 03:49:20;;;;;;;18.10;16.30;;;;;;;16.52;100.00;95960.42;111581;1244;67489;-79
2023/09/19 03:51:49;;;;;;;17.80;16.10;;;;;;;16.53;100.00;95960.00;111650;1244;22511;-79
2023/09/19 03:54:19;;;;;;;18.00;16.20;;;;;;;16.56;100.00;95957.95;111633;1241;22524;-79
2023/09/19 03:56:53;;;;;;;18.80;16.10;;;;;;;16.59;100.00;95955.83;111653;1244;25348;-79
2023/09/19 03:59:25;;;;;;;17.30;15.60;;;;;;;16.60;100.00;95956.64;109954;1244;2174876;-79
2023/09/19 04:01:56;;;;;;;17.10;15.50;;;;;;;16.62;100.00;95952.67;111626;1244;22521;-79
2023/09/19 04:04:29;;;;;;;18.20;16.40;;;;;;;16.61;100.00;95952.61;111712;1244;24196;-79
2023/09/19 04:06:58;;;;;;;17.90;16.00;;;;;;;16.57;100.00;95951.02;111741;1244;24069;-79
2023/09/19 04:09:26;;;;;;;18.50;16.50;;;;;;;16.49;100.00;95950.67;107505;1244;5358706;-79
2023/09/19 04:12:03;;;;;;;18.10;16.30;;;;;;;16.44;100.00;95956.98;111651;1244;22509;-79
2023/09/19 04:14:34;;;;;;;18.90;16.20;;;;;;;16.41;100.00;95960.89;111637;1244;22558;-79
2023/09/19 04:17:05;;;;;;;18.30;16.50;;;;;;;16.43;100.00;95966.46;111658;1244;22527;-79
2023/09/19 04:19:41;;;;;;;18.50;16.70;;;;;;;16.47;100.00;95963.00;110290;1244;1829470;-79
2023/09/19 04:22:15;;;;;;;17.60;15.90;;;;;;;16.51;100.00;95958.68;111671;1244;22530;-79
2023/09/19 04:24:44;;;;;;;16.70;15.00;;;;;;;16.53;100.00;95955.70;111632;1244;22506;-79
2023/09/19 04:27:15;;;;;;;17.00;15.30;;;;;;;16.54;100.00;95952.91;111681;1244;22509;-79
2023/09/19 04:29:44;;;;;;;17.30;15.50;;;;;;;16.55;100.00;95950.34;110116;1237;2042446;-79
2023/09/19 04:32:22;;;;;;;16.80;15.20;;;;;;;16.55;100.00;95948.34;111675;1238;22516;-79
2023/09/19 04:34:51;;;;;;;17.90;16.20;;;;;;;16.55;100.00;95949.05;111707;1244;22513;-79
2023/09/19 04:37:23;;;;;;;17.00;15.40;;;;;;;16.54;100.00;95950.33;111710;1244;22611;-79
2023/09/19 04:39:56;;;;;;;17.90;16.20;;;;;;;16.53;100.00;95950.37;111671;1244;31457;-79
2023/09/19 04:42:26;;;;;;;17.90;16.10;;;;;;;16.51;100.00;95945.09;111666;1244;22553;-79
2023/09/19 04:45:04;;;;;;;16.90;15.10;;;;;;;16.50;100.00;95942.77;111670;1244;25387;-79
2023/09/19 04:47:40;;;;;;;16.70;15.00;;;;;;;16.52;100.00;95941.16;111735;1244;24183;-79
2023/09/19 04:50:20;;;;;;;17.30;15.60;;;;;;;16.56;100.00;95946.85;111680;1244;44925;-79
2023/09/19 04:52:56;;;;;;;17.00;15.50;;;;;;;16.58;100.00;95945.23;111728;1244;22523;-79
2023/09/19 04:55:33;;;;;;;16.40;14.80;;;;;;;16.60;100.00;95947.67;111716;1244;22517;-79
2023/09/19 04:58:04;;;;;;;17.30;15.70;;;;;;;16.64;100.00;95945.82;111705;1244;31581;-79
2023/09/19 05:00:35;;;;;;;16.90;15.30;;;;;;;16.71;100.00;95951.11;111694;1244;22663;-79
2023/09/19 05:03:08;;;;;;;16.70;15.10;;;;;;;16.75;100.00;95953.23;111716;1244;26714;-79
2023/09/19 05:05:38;;;;;;;17.20;15.30;;;;;;;16.77;100.00;95950.27;111736;1244;22508;-81
2023/09/19 05:08:14;;;;;;;17.10;15.30;;;;;;;16.79;100.00;95950.45;111968;1244;60651;-81
2023/09/19 05:10:43;;;;;;;16.80;15.00;;;;;;;16.79;100.00;95956.76;112012;1244;24241;-81
2023/09/19 05:13:20;;;;;;;17.30;15.40;;;;;;;16.80;100.00;95955.01;112093;1244;22553;-81
2023/09/19 05:16:03;;;;;;;19.70;15.30;;;;;;;16.82;100.00;95957.13;111957;1244;24135;-81
2023/09/19 05:18:34;;;;;;;17.90;16.20;;;;;;;16.82;100.00;95955.32;111915;1244;49803;-81
2023/09/19 05:21:09;;;;;;;16.80;15.20;;;;;;;16.81;100.00;95952.91;111934;1244;22524;-81
2023/09/19 05:23:43;;;;;;;17.30;15.50;;;;;;;16.81;100.00;95956.81;112036;1244;25410;-81
2023/09/19 05:26:12;;;;;;;16.80;15.10;;;;;;;16.80;100.00;95955.48;112029;1244;25464;-81
2023/09/19 05:28:42;;;;;;;18.50;16.40;;;;;;;16.79;100.00;95956.06;111975;1244;73176;-81
2023/09/19 05:31:18;;;;;;;16.70;15.10;;;;;;;16.79;100.00;95955.74;111975;1244;22513;-81
2023/09/19 05:34:06;;;;;;;17.50;15.70;;;;;;;16.80;100.00;95957.08;111933;1244;25828;-81
2023/09/19 05:36:42;;;;;;;18.00;16.30;;;;;;;16.79;100.00;95956.21;111985;1244;22670;-81
2023/09/19 05:39:16;;;;;;;18.40;16.40;;;;;;;16.77;100.00;95962.04;111949;1244;59778;-81
2023/09/19 05:41:47;;;;;;;18.10;15.00;;;;;;;16.76;100.00;95960.33;112043;1244;25176;-81
2023/09/19 05:44:26;;;;;;;17.30;15.50;;;;;;;16.77;100.00;95962.58;112025;1244;25916;-81
2023/09/19 05:47:08;;;;;;;17.70;16.00;;;;;;;16.78;100.00;95963.05;112019;1244;22742;-81
2023/09/19 05:49:48;;;;;;;20.00;15.90;;;;;;;16.75;100.00;95958.52;111863;1244;104829;-81
2023/09/19 05:52:21;;;;;;;18.20;16.30;;;;;;;16.74;100.00;95959.63;112033;1244;22822;-81
2023/09/19 05:54:57;;;;;;;17.30;15.50;;;;;;;16.74;100.00;95962.46;111986;1244;22512;-81
2023/09/19 05:57:25;;;;;;;16.60;14.90;;;;;;;16.77;100.00;95962.70;112029;1244;22518;-81
2023/09/19 06:00:11;;;;;;;17.70;15.80;;;;;;;16.79;100.00;95966.14;112024;1244;42800;-81
2023/09/19 06:02:41;;;;;;;17.60;15.80;;;;;;;16.79;100.00;95963.02;111931;1239;24236;-81
2023/09/19 06:05:15;;;;;;;16.40;14.70;;;;;;;16.81;100.00;95963.93;112025;1244;22512;-81
2023/09/19 06:07:44;;;;;;;16.90;15.20;;;;;;;16.82;100.00;95969.21;112036;1244;22500;-81
2023/09/19 06:10:14;;;;;;;17.70;15.60;;;;;;;16.78;100.00;95969.64;112059;1244;51094;-81
2023/09/19 06:12:51;;;;;;;17.40;15.70;;;;;;;16.82;100.00;95979.33;112040;1244;22504;-81
2023/09/19 06:15:30;;;;;;;18.10;16.20;;;;;;;16.82;100.00;95976.87;112023;1244;22548;-81
2023/09/19 06:18:19;;;;;;;17.70;16.00;;;;;;;16.76;100.00;95974.69;111971;1244;25221;-81
2023/09/19 06:20:57;;;;;;;17.70;15.30;;;;;;;16.82;100.00;95988.34;111972;1244;22506;-81
2023/09/19 06:23:36;;;;;;;19.30;17.20;;;;;;;16.81;100.00;95993.80;112026;1244;24921;-80
2023/09/19 06:26:29;;;;;;;17.50;15.80;;;;;;;16.80;100.00;95999.77;111969;1235;24851;-80
2023/09/19 06:29:01;;;;;;;18.90;17.00;;;;;;;16.82;100.00;96005.23;112031;1244;48944;-80
2023/09/19 06:31:39;;;;;;;19.50;17.50;;;;;;;16.82;100.00;96008.30;112069;1244;25341;-80
2023/09/19 06:34:15;;;;;;;20.90;18.70;;;;;;;16.82;100.00;96011.98;112063;1244;24312;-80
2023/09/19 06:36:45;;;;;;;19.50;17.50;;;;;;;16.86;100.00;96009.19;112049;1244;22568;-80
2023/09/19 06:39:22;;;;;;;20.00;17.70;;;;;;;16.90;100.00;96009.48;112024;1244;28924;-80
2023/09/19 06:41:55;;;;;;;19.50;17.40;;;;;;;16.93;100.00;96009.81;112001;1244;22524;-80
2023/09/19 06:44:25;;;;;;;19.50;17.50;;;;;;;16.95;100.00;96011.11;111931;1244;22628;-80
2023/09/19 06:47:04;;;;;;;19.50;17.60;;;;;;;16.96;100.00;96011.45;112008;1241;22537;-80
2023/09/19 06:49:41;;;;;;;;;;;;;;;16.98;100.00;96012.58;111958;1244;52264;-80
2023/09/19 06:52:27;;;;;;;18.90;17.00;;;;;;;16.98;100.00;96018.54;111884;1244;22516;-81
2023/09/19 06:54:57;;;;;;;20.10;17.90;;;;;;;17.00;100.00;96024.88;112028;1244;22505;-81
2023/09/19 06:57:35;;;;;;;20.20;18.10;;;;;;;16.99;100.00;96025.30;112008;1244;22541;-80
2023/09/19 07:00:18;;;;;;;19.60;17.60;;;;;;;16.99;100.00;96023.00;112022;1244;50854;-81
2023/09/19 07:03:03;;;;;;;20.80;18.80;;;;;;;17.00;100.00;96031.05;112057;1244;25271;-80
2023/09/19 07:08:30;;;;;;;20.40;18.50;;;;;;;17.00;100.00;96033.15;110602;1244;1823602;-80
2023/09/19 07:10:59;;;;;;;18.90;16.90;;;;;;;16.97;100.00;96033.89;111985;1244;22532;-80
2023/09/19 07:13:35;;;;;;;18.90;17.10;;;;;;;16.98;100.00;96034.39;112159;1244;22496;-80
2023/09/19 07:16:04;;;;;;;19.00;17.10;;;;;;;16.99;100.00;96039.01;112021;1244;22606;-81
2023/09/19 07:18:44;;;;;;;19.90;18.00;;;;;;;16.99;100.00;96040.23;110337;1244;2153994;-81
2023/09/19 07:21:30;;;;;;;20.50;18.50;;;;;;;16.99;100.00;96042.68;112048;1244;22618;-80
2023/09/19 07:24:06;;;;;;;19.80;17.90;;;;;;;16.99;100.00;96040.45;112024;1244;22499;-80
2023/09/19 07:26:43;;;;;;;19.80;17.80;;;;;;;17.00;100.00;96040.34;112026;1244;22506;-81
2023/09/19 07:29:20;;;;;;;20.30;18.10;;;;;;;17.01;100.00;96044.02;112025;1244;53514;-80
2023/09/19 07:31:56;;;;;;;18.60;16.80;;;;;;;17.00;100.00;96043.30;112029;1244;22518;-81
2023/09/19 07:34:24;;;;;;;19.30;17.30;;;;;;;17.00;100.00;96049.51;112031;1244;22544;-81
2023/09/19 07:37:13;;;;;;;19.90;17.90;;;;;;;17.00;100.00;96047.98;112035;1244;22632;-81
2023/09/19 07:39:51;;;;;;;18.60;16.90;;;;;;;16.98;100.00;96046.02;109548;1244;3179896;-80
2023/09/19 07:42:30;;;;;;;18.70;16.80;;;;;;;16.96;100.00;96052.37;112026;1244;22536;-80
2023/09/19 07:45:04;;;;;;;19.20;17.40;;;;;;;16.95;100.00;96051.10;112030;1238;22515;-80
2023/09/19 07:47:32;;;;;;;19.10;17.20;;;;;;;16.94;100.00;96058.73;112030;1244;22505;-80
2023/09/19 07:50:12;;;;;;;18.40;16.60;;;;;;;16.94;100.00;96061.41;112009;1244;37302;-80
2023/09/19 07:52:47;;;;;;;18.20;16.50;;;;;;;16.94;100.00;96060.43;112057;1244;25280;-80
2023/09/19 07:55:25;;;;;;;19.10;16.90;;;;;;;16.95;100.00;96058.60;112008;1244;22502;-80
2023/09/19 07:57:58;;;;;;;19.10;17.20;;;;;;;16.96;100.00;96059.17;112017;1244;22544;-81
2023/09/19 08:00:27;;;;;;;18.90;17.00;;;;;;;16.97;100.00;96067.16;110679;1244;1761286;-82
2023/09/19 08:03:05;;;;;;;17.90;16.10;;;;;;;16.96;100.00;96072.19;111990;1244;22673;-79
2023/09/19 08:05:48;;;;;;;17.10;15.30;;;;;;;16.98;100.00;96073.54;112013;1241;22538;-81
2023/09/19 08:08:21;;;;;;;17.80;16.00;;;;;;;17.00;100.00;96079.41;112163;1244;23082;-80
2023/09/19 08:11:11;;;;;;;18.10;16.30;;;;;;;16.99;100.00;96085.66;112040;1244;25427;-81
2023/09/19 08:13:43;;;;;;;18.20;16.40;;;;;;;17.02;100.00;96093.94;112134;1244;22614;-80
2023/09/19 08:16:12;;;;;;;14.30;12.60;;;;;;;17.02;100.00;96096.43;111909;1244;22513;-80
2023/09/19 08:18:45;;;;;;;13.00;11.60;;;;;;;17.03;100.00;96101.23;112011;1244;47302;-79
2023/09/19 08:21:26;;;;;;;11.30;9.70;;;;;;;17.04;100.00;96110.16;111697;1244;26691;-80
2023/09/19 08:24:16;;;;;;;7.60;6.80;;;;;;;17.04;100.00;96113.79;111632;1244;22594;-81
2023/09/19 08:27:01;;;;;;;4.00;3.60;;;;;;;17.02;100.00;96112.62;112003;1244;22548;-81
2023/09/19 08:29:35;;;;;;;2.80;2.10;;;;;;;16.98;100.00;96117.30;111935;1244;67414;-81
2023/09/19 08:32:07;;;;;;;2.00;1.70;;;;;;;16.90;100.00;96117.28;112048;1244;22499;-80
2023/09/19 08:34:38;;;;;;;2.40;2.00;;;;;;;16.82;100.00;96128.10;111997;1244;22516;-80
2023/09/19 08:37:21;;;;;;;2.10;1.90;;;;;;;16.74;100.00;96130.41;112002;1244;22574;-80
2023/09/19 08:39:56;;;;;;;1.70;1.50;;;;;;;16.68;100.00;96143.89;111971;1244;33504;-81
2023/09/19 08:42:47;;;;;;;1.70;1.10;;;;;;;16.59;100.00;96142.92;112004;1244;25423;-81
2023/09/19 08:45:18;;;;;;;1.40;0.90;;;;;;;16.46;100.00;96145.58;111985;1244;24181;-81
2023/09/19 08:48:02;;;;;;;1.40;0.90;;;;;;;16.38;100.00;96154.48;111985;1244;22538;-81
2023/09/19 08:50:38;;;;;;;1.40;0.90;;;;;;;16.35;100.00;96155.05;111819;1242;65119;-81
2023/09/19 08:53:16;;;;;;;1.50;0.80;;;;;;;16.31;100.00;96162.36;112016;1244;22527;-81
2023/09/19 08:55:57;;;;;;;1.60;0.90;;;;;;;16.29;100.00;96157.98;112015;1244;22593;-80
2023/09/19 08:58:46;;;;;;;1.60;0.90;;;;;;;16.30;100.00;96159.89;111962;1244;22511;-81
2023/09/19 09:01:41;;;;;;;1.90;1.20;;;;;;;16.28;100.00;96166.02;111973;1244;22509;-81
2023/09/19 09:04:13;;;;;;;2.20;1.20;;;;;;;16.26;100.00;96172.52;112005;1244;22522;-80
2023/09/19 09:06:44;;;;;;;2.60;1.70;;;;;;;16.28;100.00;96173.50;112009;1244;22496;-81
2023/09/19 09:09:20;;;;;;;1.60;1.50;;;;;;;16.27;100.00;96177.91;111992;1244;49022;-81
2023/09/19 09:11:56;;;;;;;2.70;1.50;;;;;;;16.26;100.00;96184.00;112015;1244;22505;-81
2023/09/19 09:14:30;;;;;;;4.00;2.20;;;;;;;16.26;100.00;96184.96;112052;1244;22523;-81
2023/09/19 09:17:12;;;;;;;;;;;;;;;16.27;100.00;96190.75;112107;1244;22483;-81
2023/09/19 09:19:48;;;;;;;3.20;2.40;;;;;;;16.24;100.00;96187.92;110656;1244;1812840;-81
2023/09/19 09:22:26;;;;;;;2.00;1.70;;;;;;;16.31;100.00;96188.96;112110;1244;22513;-81
2023/09/19 09:25:04;;;;;;;3.40;2.20;;;;;;;16.34;100.00;96184.35;111861;1239;22568;-81
2023/09/19 09:28:02;;;;;;;5.10;2.10;;;;;;;16.36;100.00;96195.43;112055;1244;22625;-81
2023/09/19 09:30:43;;;;;;;2.30;1.90;;;;;;;16.34;100.00;96199.59;112014;1244;42609;-80
2023/09/19 09:33:29;;;;;;;2.80;2.30;;;;;;;16.32;100.00;96209.59;112083;1244;22511;-79
2023/09/19 09:36:03;;;;;;;2.80;2.10;;;;;;;16.32;100.00;96210.88;112064;1244;22495;-82
2023/09/19 09:39:15;;;;;;;2.20;1.80;;;;;;;16.34;100.00;96218.70;112063;1244;22505;-81
2023/09/19 09:42:06;;;;;;;2.20;2.00;;;;;;;16.35;100.00;96220.92;112067;1244;22510;-81
2023/09/19 09:44:42;;;;;;;3.20;2.40;;;;;;;16.40;100.00;96224.86;112056;1244;22670;-82
2023/09/19 09:47:54;;;;;;;2.50;2.30;;;;;;;16.39;100.00;96230.08;112098;1244;25308;-81
2023/09/19 09:50:39;;;;;;;4.60;2.80;;;;;;;16.37;100.00;96237.12;112065;1244;35234;-77
2023/09/19 09:53:25;;;;;;;3.10;2.60;;;;;;;16.38;100.00;96230.81;111722;1244;24229;-75
2023/09/19 09:56:09;;;;;;;2.70;2.50;;;;;;;16.41;100.00;96236.98;111753;1244;22783;-75
2023/09/19 09:58:49;;;;;;;4.40;3.20;;;;;;;16.44;100.00;96244.43;111769;1244;24221;-76
2023/09/19 10:01:21;;;;;;;4.10;2.90;;;;;;;16.47;100.00;96243.79;111686;1244;23285;-75
2023/09/19 10:03:57;;;;;;;3.00;2.70;;;;;;;16.50;100.00;96248.18;111725;1244;22498;-76
2023/09/19 10:06:27;;;;;;;4.20;2.90;;;;;;;16.54;100.00;96252.62;111731;1244;22534;-76
2023/09/19 10:09:10;;;;;;;6.30;3.10;;;;;;;16.60;100.00;96252.70;111722;1243;22566;-76
2023/09/19 10:11:44;;;;;;;4.20;3.30;;;;;;;16.66;100.00;96252.46;111743;1244;22502;-76
2023/09/19 10:14:16;;;;;;;4.40;3.40;;;;;;;16.68;100.00;96251.33;111747;1244;22505;-75
2023/09/19 10:16:49;;;;;;;4.40;3.50;;;;;;;16.71;100.00;96248.91;111717;1241;24251;-76
2023/09/19 10:19:30;;;;;;;4.20;3.50;;;;;;;16.73;100.00;96255.03;111737;1244;22513;-77
2023/09/19 10:22:00;;;;;;;4.00;3.30;;;;;;;16.77;100.00;96260.79;111757;1244;22664;-76
2023/09/19 10:24:31;;;;;;;3.60;3.10;;;;;;;16.81;100.00;96258.86;111718;1237;22537;-76
2023/09/19 10:27:02;;;;;;;5.50;3.20;;;;;;;16.83;100.00;96263.06;111756;1244;23510;-77
2023/09/19 10:29:36;;;;;;;3.60;2.80;;;;;;;16.86;100.00;96268.07;111729;1244;40698;-77
2023/09/19 10:32:08;;;;;;;3.40;3.00;;;;;;;16.87;100.00;96268.03;111737;1244;22574;-77
2023/09/19 10:34:41;;;;;;;3.40;2.70;;;;;;;16.87;100.00;96270.09;112818;1244;22592;-77
2023/09/19 10:37:16;;;;;;;4.80;3.40;;;;;;;16.85;100.00;96275.52;111708;1244;25232;-76
2023/09/19 10:39:47;;;;;;;3.80;2.90;;;;;;;16.83;100.00;96273.30;111513;1244;28874;-77
2023/09/19 10:42:20;;;;;;;3.10;2.70;;;;;;;16.82;100.00;96283.14;111634;1244;22521;-77
2023/09/19 10:44:53;;;;;;;3.80;2.60;;;;;;;16.80;100.00;96285.23;111822;1244;22506;-77
2023/09/19 10:47:24;;;;;;;3.30;2.90;;;;;;;16.79;100.00;96282.43;111742;1244;22614;-76
2023/09/19 10:49:53;;;;;;;4.50;3.30;;;;;;;16.79;100.00;96281.27;111803;1244;24245;-77
2023/09/19 10:52:25;;;;;;;3.80;2.50;;;;;;;16.78;100.00;96283.70;111764;1244;22501;-76
2023/09/19 10:54:58;;;;;;;3.70;3.20;;;;;;;16.80;100.00;96286.67;111819;1244;22509;-76
2023/09/19 10:57:28;;;;;;;4.60;2.90;;;;;;;16.79;100.00;96287.92;111751;1244;22520;-77
2023/09/19 11:00:21;;;;;;;3.50;3.00;;;;;;;16.79;100.00;96289.52;111714;1244;22515;-76
2023/09/19 11:03:23;;;;;;;3.00;2.70;;;;;;;16.80;100.00;96289.27;111755;1244;22497;-77
2023/09/19 11:06:09;;;;;;;4.70;3.10;;;;;;;16.82;100.00;96287.48;111766;1244;22502;-77
2023/09/19 11:08:57;;;;;;;4.40;2.90;;;;;;;16.82;100.00;96292.92;111765;1244;22489;-77
2023/09/19 11:11:43;;;;;;;4.40;3.10;;;;;;;16.82;100.00;96298.91;111771;1244;25266;-77
2023/09/19 11:14:46;;;;;;;3.70;2.90;;;;;;;16.83;100.00;96298.17;111745;1244;24273;-77
2023/09/19 11:17:41;;;;;;;5.00;3.00;;;;;;;16.81;100.00;96298.33;111756;1244;22583;-77
2023/09/19 11:23:36;;;;;;;4.10;2.50;;;;;;;16.78;100.00;96298.35;111665;1244;22705;-77
2023/09/19 11:26:26;;;;;;;4.80;3.10;;;;;;;16.74;100.00;96302.92;111770;1244;25050;-77
2023/09/19 11:29:29;;;;;;;4.90;3.20;;;;;;;16.70;100.00;96302.04;111785;1231;22526;-77
2023/09/19 11:31:59;;;;;;;4.50;3.40;;;;;;;16.68;100.00;96303.91;111760;1244;22498;-77
2023/09/19 11:34:50;;;;;;;4.30;3.20;;;;;;;16.64;100.00;96308.77;111810;1244;22501;-77
2023/09/19 11:38:02;;;;;;;4.20;3.20;;;;;;;16.59;100.00;96313.44;111767;1244;24037;-77
2023/09/19 11:40:32;;;;;;;5.30;3.50;;;;;;;16.54;100.00;96318.54;111840;1244;22719;-77
2023/09/19 11:43:35;;;;;;;4.10;3.40;;;;;;;16.51;100.00;96323.16;111760;1244;22554;-77
2023/09/19 11:46:16;;;;;;;7.10;3.70;;;;;;;16.49;100.00;96326.36;111791;1244;22632;-77
2023/09/19 11:48:49;;;;;;;7.80;4.10;;;;;;;16.47;100.00;96328.63;111769;1244;22526;-77
2023/09/19 11:51:26;;;;;;;5.70;3.50;;;;;;;16.43;100.00;96333.92;111806;1244;22488;-78
2023/09/19 11:54:00;;;;;;;4.40;3.80;;;;;;;16.41;100.00;96334.54;111798;1244;22541;-77
2023/09/19 11:56:40;;;;;;;6.30;4.00;;;;;;;16.40;100.00;96335.77;111785;1244;22496;-78